sensor_id;sensor_type;location;lat;lon;timestamp;pressure;altitude;pressure_sealevel;temperature;humidity
9415;BME280;4746;35.664;139.738;2023-04-04T00:00:45;101401.72;;;18.10;39.50
9415;BME280;4746;35.664;139.738;2023-04-04T00:03:13;101404.28;;;18.16;39.26
9415;BME280;4746;35.664;139.738;2023-04-04T00:05:40;101404.25;;;18.18;38.81
9415;BME280;4746;35.664;139.738;2023-04-04T00:08:08;101399.97;;;18.21;38.89
9415;BME280;4746;35.664;139.738;2023-04-04T00:10:35;101402.56;;;18.24;38.84
9415;BME280;4746;35.664;139.738;2023-04-04T00:13:03;101403.41;;;18.28;39.03
9415;BME280;4746;35.664;139.738;2023-04-04T00:15:31;101397.34;;;18.26;38.86
9415;BME280;4746;35.664;139.738;2023-04-04T00:18:00;101401.63;;;18.30;38.79
9415;BME280;4746;35.664;139.738;2023-04-04T00:20:30;101395.59;;;18.31;38.48
9415;BME280;4746;35.664;139.738;2023-04-04T00:22:58;101391.25;;;18.33;38.60
9415;BME280;4746;35.664;139.738;2023-04-04T00:25:26;101401.59;;;18.36;38.57
9415;BME280;4746;35.664;139.738;2023-04-04T00:27:55;101398.13;;;18.41;38.58
9415;BME280;4746;35.664;139.738;2023-04-04T00:30:26;101393.75;;;18.48;38.59
9415;BME280;4746;35.664;139.738;2023-04-04T00:32:54;101386.78;;;18.56;38.22
9415;BME280;4746;35.664;139.738;2023-04-04T00:35:23;101374.63;;;18.62;38.32
9415;BME280;4746;35.664;139.738;2023-04-04T00:37:50;101367.63;;;18.72;38.23
9415;BME280;4746;35.664;139.738;2023-04-04T00:40:18;101364.13;;;18.77;37.89
9415;BME280;4746;35.664;139.738;2023-04-04T00:42:45;101370.06;;;18.89;37.86
9415;BME280;4746;35.664;139.738;2023-04-04T00:45:13;101357.84;;;19.00;37.66
9415;BME280;4746;35.664;139.738;2023-04-04T00:47:43;101355.19;;;19.12;37.54
9415;BME280;4746;35.664;139.738;2023-04-04T00:50:11;101360.31;;;19.21;37.43
9415;BME280;4746;35.664;139.738;2023-04-04T00:52:39;101356.63;;;19.40;37.11
9415;BME280;4746;35.664;139.738;2023-04-04T00:55:07;101348.69;;;19.55;37.12
9415;BME280;4746;35.664;139.738;2023-04-04T00:57:35;101352.00;;;19.69;36.61
9415;BME280;4746;35.664;139.738;2023-04-04T01:00:04;101358.00;;;19.71;36.05
9415;BME280;4746;35.664;139.738;2023-04-04T01:02:32;101351.94;;;19.72;36.10
9415;BME280;4746;35.664;139.738;2023-04-04T01:05:01;101355.19;;;19.89;36.21
9415;BME280;4746;35.664;139.738;2023-04-04T01:07:30;101349.00;;;20.02;36.03
9415;BME280;4746;35.664;139.738;2023-04-04T01:09:57;101353.19;;;20.12;35.53
9415;BME280;4746;35.664;139.738;2023-04-04T01:12:26;101352.28;;;20.16;35.41
9415;BME280;4746;35.664;139.738;2023-04-04T01:14:53;101348.69;;;20.23;35.27
9415;BME280;4746;35.664;139.738;2023-04-04T01:17:22;101354.56;;;20.36;35.06
9415;BME280;4746;35.664;139.738;2023-04-04T01:20:11;101363.88;;;20.52;34.78
9415;BME280;4746;35.664;139.738;2023-04-04T01:22:45;101362.16;;;20.51;34.64
9415;BME280;4746;35.664;139.738;2023-04-04T01:25:15;101364.66;;;20.59;34.23
9415;BME280;4746;35.664;139.738;2023-04-04T01:27:44;101358.38;;;20.70;34.17
9415;BME280;4746;35.664;139.738;2023-04-04T01:30:13;101357.34;;;20.83;33.78
9415;BME280;4746;35.664;139.738;2023-04-04T01:32:52;101348.53;;;20.90;32.83
9415;BME280;4746;35.664;139.738;2023-04-04T01:35:43;101346.75;;;20.92;32.79
9415;BME280;4746;35.664;139.738;2023-04-04T01:41:07;101341.72;;;20.83;32.41
9415;BME280;4746;35.664;139.738;2023-04-04T01:43:35;101339.97;;;20.82;32.04
9415;BME280;4746;35.664;139.738;2023-04-04T01:46:03;101334.63;;;20.91;32.35
9415;BME280;4746;35.664;139.738;2023-04-04T01:48:31;101328.41;;;20.98;31.78
9415;BME280;4746;35.664;139.738;2023-04-04T01:51:00;101330.91;;;21.05;31.92
9415;BME280;4746;35.664;139.738;2023-04-04T01:53:28;101325.63;;;21.08;31.47
9415;BME280;4746;35.664;139.738;2023-04-04T01:55:56;101322.06;;;21.14;31.24
9415;BME280;4746;35.664;139.738;2023-04-04T01:58:23;101319.25;;;21.23;31.18
9415;BME280;4746;35.664;139.738;2023-04-04T02:00:51;101321.72;;;21.32;31.04
9415;BME280;4746;35.664;139.738;2023-04-04T02:03:19;101317.31;;;21.34;30.87
9415;BME280;4746;35.664;139.738;2023-04-04T02:05:47;101313.69;;;21.41;30.68
9415;BME280;4746;35.664;139.738;2023-04-04T02:08:15;101308.28;;;21.53;30.10
9415;BME280;4746;35.664;139.738;2023-04-04T02:10:46;101312.44;;;21.61;29.75
9415;BME280;4746;35.664;139.738;2023-04-04T02:13:13;101309.63;;;21.71;29.68
9415;BME280;4746;35.664;139.738;2023-04-04T02:15:41;101305.97;;;21.80;29.73
9415;BME280;4746;35.664;139.738;2023-04-04T02:18:09;101298.72;;;21.92;29.34
9415;BME280;4746;35.664;139.738;2023-04-04T02:20:36;101294.06;;;22.06;29.21
9415;BME280;4746;35.664;139.738;2023-04-04T02:23:04;101293.81;;;22.18;28.59
9415;BME280;4746;35.664;139.738;2023-04-04T02:25:31;101284.94;;;22.25;28.23
9415;BME280;4746;35.664;139.738;2023-04-04T02:27:59;101278.72;;;22.32;27.91
9415;BME280;4746;35.664;139.738;2023-04-04T02:30:27;101282.06;;;22.37;27.80
9415;BME280;4746;35.664;139.738;2023-04-04T02:32:57;101272.13;;;22.52;27.91
9415;BME280;4746;35.664;139.738;2023-04-04T02:35:25;101271.19;;;22.55;27.60
9415;BME280;4746;35.664;139.738;2023-04-04T02:37:53;101276.31;;;22.58;27.36
9415;BME280;4746;35.664;139.738;2023-04-04T02:40:20;101278.03;;;22.59;27.14
9415;BME280;4746;35.664;139.738;2023-04-04T02:42:48;101269.94;;;22.69;26.87
9415;BME280;4746;35.664;139.738;2023-04-04T02:45:16;101279.88;;;22.89;26.36
9415;BME280;4746;35.664;139.738;2023-04-04T02:47:50;101268.63;;;23.18;26.85
9415;BME280;4746;35.664;139.738;2023-04-04T02:50:18;101265.53;;;23.35;26.62
9415;BME280;4746;35.664;139.738;2023-04-04T02:52:45;101257.16;;;23.53;25.85
9415;BME280;4746;35.664;139.738;2023-04-04T02:55:13;101253.47;;;23.60;25.64
9415;BME280;4746;35.664;139.738;2023-04-04T02:57:40;101244.41;;;23.71;25.66
9415;BME280;4746;35.664;139.738;2023-04-04T03:00:08;101237.00;;;23.85;25.49
9415;BME280;4746;35.664;139.738;2023-04-04T03:02:37;101239.44;;;23.91;24.89
9415;BME280;4746;35.664;139.738;2023-04-04T03:05:05;101242.75;;;23.97;24.37
9415;BME280;4746;35.664;139.738;2023-04-04T03:07:33;101234.59;;;24.06;23.60
9415;BME280;4746;35.664;139.738;2023-04-04T03:10:01;101228.25;;;24.13;23.26
9415;BME280;4746;35.664;139.738;2023-04-04T03:12:29;101221.38;;;24.37;23.27
9415;BME280;4746;35.664;139.738;2023-04-04T03:14:56;101221.38;;;24.62;23.33
9415;BME280;4746;35.664;139.738;2023-04-04T03:17:24;101203.22;;;24.82;22.84
9415;BME280;4746;35.664;139.738;2023-04-04T03:19:52;101206.66;;;25.09;22.85
9415;BME280;4746;35.664;139.738;2023-04-04T03:22:20;101207.78;;;25.24;23.42
9415;BME280;4746;35.664;139.738;2023-04-04T03:24:47;101201.78;;;25.21;23.34
9415;BME280;4746;35.664;139.738;2023-04-04T03:27:14;101193.56;;;25.07;22.59
9415;BME280;4746;35.664;139.738;2023-04-04T03:29:43;101191.75;;;25.09;22.58
9415;BME280;4746;35.664;139.738;2023-04-04T03:32:10;101183.94;;;25.30;22.56
9415;BME280;4746;35.664;139.738;2023-04-04T03:34:38;101177.09;;;25.49;22.61
9415;BME280;4746;35.664;139.738;2023-04-04T03:37:05;101169.06;;;25.75;21.93
9415;BME280;4746;35.664;139.738;2023-04-04T03:39:33;101167.44;;;25.94;22.38
9415;BME280;4746;35.664;139.738;2023-04-04T03:42:01;101162.59;;;26.05;21.14
9415;BME280;4746;35.664;139.738;2023-04-04T03:44:28;101171.63;;;26.19;20.90
9415;BME280;4746;35.664;139.738;2023-04-04T03:46:56;101154.81;;;26.23;20.62
9415;BME280;4746;35.664;139.738;2023-04-04T03:49:24;101160.91;;;26.24;19.43
9415;BME280;4746;35.664;139.738;2023-04-04T03:51:53;101151.06;;;26.29;19.25
9415;BME280;4746;35.664;139.738;2023-04-04T03:54:21;101153.50;;;26.33;18.40
9415;BME280;4746;35.664;139.738;2023-04-04T03:56:49;101139.09;;;26.43;18.60
9415;BME280;4746;35.664;139.738;2023-04-04T03:59:18;101135.81;;;26.58;18.44
9415;BME280;4746;35.664;139.738;2023-04-04T04:01:45;101138.03;;;26.67;18.49
9415;BME280;4746;35.664;139.738;2023-04-04T04:04:13;101132.78;;;26.85;18.43
9415;BME280;4746;35.664;139.738;2023-04-04T04:06:41;101125.19;;;27.18;17.98
9415;BME280;4746;35.664;139.738;2023-04-04T04:09:10;101122.91;;;27.65;18.18
9415;BME280;4746;35.664;139.738;2023-04-04T04:11:38;101119.25;;;28.03;17.42
9415;BME280;4746;35.664;139.738;2023-04-04T04:14:05;101121.28;;;28.15;16.89
9415;BME280;4746;35.664;139.738;2023-04-04T04:16:33;101116.50;;;28.23;16.72
9415;BME280;4746;35.664;139.738;2023-04-04T04:19:00;101119.47;;;28.34;16.49
9415;BME280;4746;35.664;139.738;2023-04-04T04:21:29;101111.59;;;28.49;16.24
9415;BME280;4746;35.664;139.738;2023-04-04T04:23:56;101103.72;;;28.65;16.64
9415;BME280;4746;35.664;139.738;2023-04-04T04:26:24;101096.41;;;28.70;16.32
9415;BME280;4746;35.664;139.738;2023-04-04T04:28:52;101092.22;;;28.83;16.29
9415;BME280;4746;35.664;139.738;2023-04-04T04:31:19;101096.84;;;28.94;16.16
9415;BME280;4746;35.664;139.738;2023-04-04T04:33:47;101091.56;;;28.94;15.63
9415;BME280;4746;35.664;139.738;2023-04-04T04:36:15;101089.72;;;28.96;17.25
9415;BME280;4746;35.664;139.738;2023-04-04T04:38:42;101086.63;;;28.88;17.97
9415;BME280;4746;35.664;139.738;2023-04-04T04:41:12;101073.03;;;29.11;17.33
9415;BME280;4746;35.664;139.738;2023-04-04T04:43:39;101063.34;;;29.43;17.76
9415;BME280;4746;35.664;139.738;2023-04-04T04:46:07;101066.03;;;29.72;17.62
9415;BME280;4746;35.664;139.738;2023-04-04T04:48:35;101062.00;;;30.10;17.69
9415;BME280;4746;35.664;139.738;2023-04-04T04:51:02;101059.66;;;30.48;17.89
9415;BME280;4746;35.664;139.738;2023-04-04T04:53:30;101064.41;;;30.85;17.57
9415;BME280;4746;35.664;139.738;2023-04-04T04:55:57;101053.56;;;31.30;16.68
9415;BME280;4746;35.664;139.738;2023-04-04T04:58:25;101053.13;;;32.15;16.00
9415;BME280;4746;35.664;139.738;2023-04-04T05:00:56;101046.94;;;33.14;15.49
9415;BME280;4746;35.664;139.738;2023-04-04T05:03:24;101032.59;;;33.86;15.10
9415;BME280;4746;35.664;139.738;2023-04-04T05:05:51;101042.53;;;34.40;14.48
9415;BME280;4746;35.664;139.738;2023-04-04T05:08:19;101041.75;;;34.94;14.11
9415;BME280;4746;35.664;139.738;2023-04-04T05:10:46;101037.06;;;35.51;13.69
9415;BME280;4746;35.664;139.738;2023-04-04T05:13:14;101031.41;;;35.85;13.75
9415;BME280;4746;35.664;139.738;2023-04-04T05:15:41;101032.84;;;36.20;12.83
9415;BME280;4746;35.664;139.738;2023-04-04T05:18:09;101026.16;;;36.46;12.78
9415;BME280;4746;35.664;139.738;2023-04-04T05:20:37;101027.13;;;36.75;12.93
9415;BME280;4746;35.664;139.738;2023-04-04T05:23:04;101019.25;;;36.83;13.32
9415;BME280;4746;35.664;139.738;2023-04-04T05:25:32;101017.34;;;36.65;13.31
9415;BME280;4746;35.664;139.738;2023-04-04T05:28:00;101007.03;;;36.30;13.18
9415;BME280;4746;35.664;139.738;2023-04-04T05:30:29;101019.22;;;36.03;13.68
9415;BME280;4746;35.664;139.738;2023-04-04T05:32:58;101009.75;;;36.60;12.83
9415;BME280;4746;35.664;139.738;2023-04-04T05:35:25;101016.44;;;38.09;12.11
9415;BME280;4746;35.664;139.738;2023-04-04T05:37:53;101009.63;;;39.84;11.16
9415;BME280;4746;35.664;139.738;2023-04-04T05:40:22;101007.06;;;41.18;10.77
9415;BME280;4746;35.664;139.738;2023-04-04T05:42:58;101010.38;;;42.00;10.31
9415;BME280;4746;35.664;139.738;2023-04-04T05:45:26;101009.25;;;42.57;10.05
9415;BME280;4746;35.664;139.738;2023-04-04T05:47:53;101009.09;;;43.05;9.54
9415;BME280;4746;35.664;139.738;2023-04-04T05:50:21;101009.78;;;43.29;9.36
9415;BME280;4746;35.664;139.738;2023-04-04T05:52:49;101006.38;;;43.13;9.50
9415;BME280;4746;35.664;139.738;2023-04-04T05:55:19;101006.25;;;43.51;8.75
9415;BME280;4746;35.664;139.738;2023-04-04T05:57:50;101003.75;;;43.94;9.28
9415;BME280;4746;35.664;139.738;2023-04-04T06:00:19;101001.75;;;44.54;8.66
9415;BME280;4746;35.664;139.738;2023-04-04T06:02:46;101002.13;;;44.80;7.83
9415;BME280;4746;35.664;139.738;2023-04-04T06:05:14;101001.03;;;44.60;8.38
9415;BME280;4746;35.664;139.738;2023-04-04T06:07:42;101006.78;;;44.86;8.36
9415;BME280;4746;35.664;139.738;2023-04-04T06:10:10;100991.81;;;45.60;8.22
9415;BME280;4746;35.664;139.738;2023-04-04T06:12:38;100997.56;;;45.51;7.58
9415;BME280;4746;35.664;139.738;2023-04-04T06:15:06;100998.19;;;45.67;8.33
9415;BME280;4746;35.664;139.738;2023-04-04T06:17:34;100989.06;;;46.23;7.82
9415;BME280;4746;35.664;139.738;2023-04-04T06:20:02;100988.97;;;46.77;7.18
9415;BME280;4746;35.664;139.738;2023-04-04T06:22:30;100995.31;;;46.97;7.53
9415;BME280;4746;35.664;139.738;2023-04-04T06:24:58;100989.47;;;47.00;7.11
9415;BME280;4746;35.664;139.738;2023-04-04T06:27:26;100983.22;;;47.06;6.84
9415;BME280;4746;35.664;139.738;2023-04-04T06:29:54;100995.75;;;47.07;6.79
9415;BME280;4746;35.664;139.738;2023-04-04T06:32:21;100991.56;;;46.98;6.77
9415;BME280;4746;35.664;139.738;2023-04-04T06:34:49;100986.56;;;46.61;6.66
9415;BME280;4746;35.664;139.738;2023-04-04T06:37:16;100983.31;;;46.39;6.81
9415;BME280;4746;35.664;139.738;2023-04-04T06:39:44;100981.63;;;46.04;7.30
9415;BME280;4746;35.664;139.738;2023-04-04T06:42:11;100986.41;;;45.60;6.95
9415;BME280;4746;35.664;139.738;2023-04-04T06:44:39;100983.66;;;45.18;7.35
9415;BME280;4746;35.664;139.738;2023-04-04T06:47:07;100984.72;;;45.17;7.43
9415;BME280;4746;35.664;139.738;2023-04-04T06:49:34;100984.66;;;45.53;7.31
9415;BME280;4746;35.664;139.738;2023-04-04T06:52:02;100991.06;;;45.66;6.96
9415;BME280;4746;35.664;139.738;2023-04-04T06:54:31;100992.19;;;45.15;7.67
9415;BME280;4746;35.664;139.738;2023-04-04T06:56:59;100976.38;;;44.69;7.29
9415;BME280;4746;35.664;139.738;2023-04-04T06:59:26;100991.00;;;44.03;7.55
9415;BME280;4746;35.664;139.738;2023-04-04T07:01:55;100986.31;;;42.69;8.63
9415;BME280;4746;35.664;139.738;2023-04-04T07:04:23;100984.59;;;41.66;8.85
9415;BME280;4746;35.664;139.738;2023-04-04T07:06:51;100979.09;;;41.03;9.10
9415;BME280;4746;35.664;139.738;2023-04-04T07:09:19;100978.16;;;40.45;9.34
9415;BME280;4746;35.664;139.738;2023-04-04T07:11:47;100986.94;;;39.62;9.61
9415;BME280;4746;35.664;139.738;2023-04-04T07:14:14;100984.97;;;38.75;10.39
9415;BME280;4746;35.664;139.738;2023-04-04T07:16:42;100982.38;;;38.01;10.29
9415;BME280;4746;35.664;139.738;2023-04-04T07:19:09;100987.19;;;37.32;10.54
9415;BME280;4746;35.664;139.738;2023-04-04T07:21:37;100984.91;;;36.69;11.22
9415;BME280;4746;35.664;139.738;2023-04-04T07:24:05;100987.88;;;36.25;11.12
9415;BME280;4746;35.664;139.738;2023-04-04T07:26:33;100985.53;;;35.71;10.96
9415;BME280;4746;35.664;139.738;2023-04-04T07:29:01;100996.41;;;35.16;11.64
9415;BME280;4746;35.664;139.738;2023-04-04T07:31:28;100990.41;;;34.70;12.10
9415;BME280;4746;35.664;139.738;2023-04-04T07:33:56;100990.22;;;34.17;12.44
9415;BME280;4746;35.664;139.738;2023-04-04T07:36:24;100993.91;;;33.82;12.16
9415;BME280;4746;35.664;139.738;2023-04-04T07:38:51;100993.69;;;33.38;12.67
9415;BME280;4746;35.664;139.738;2023-04-04T07:41:20;100995.25;;;32.82;12.85
9415;BME280;4746;35.664;139.738;2023-04-04T07:43:49;100987.66;;;32.28;13.22
9415;BME280;4746;35.664;139.738;2023-04-04T07:46:17;100995.25;;;31.82;13.38
9415;BME280;4746;35.664;139.738;2023-04-04T07:48:46;101000.78;;;31.53;13.57
9415;BME280;4746;35.664;139.738;2023-04-04T07:51:14;100999.13;;;31.38;13.93
9415;BME280;4746;35.664;139.738;2023-04-04T07:53:41;101003.34;;;31.55;14.04
9415;BME280;4746;35.664;139.738;2023-04-04T07:56:09;100997.66;;;31.61;13.88
9415;BME280;4746;35.664;139.738;2023-04-04T07:58:36;101002.03;;;31.48;14.12
9415;BME280;4746;35.664;139.738;2023-04-04T08:01:04;101003.88;;;31.07;14.05
9415;BME280;4746;35.664;139.738;2023-04-04T08:03:32;101009.38;;;30.62;14.29
9415;BME280;4746;35.664;139.738;2023-04-04T08:06:00;101009.44;;;30.19;14.45
9415;BME280;4746;35.664;139.738;2023-04-04T08:08:28;101012.38;;;29.85;15.06
9415;BME280;4746;35.664;139.738;2023-04-04T08:10:55;101014.16;;;29.55;15.21
9415;BME280;4746;35.664;139.738;2023-04-04T08:13:23;101021.25;;;29.24;14.59
9415;BME280;4746;35.664;139.738;2023-04-04T08:15:50;101021.94;;;28.97;14.71
9415;BME280;4746;35.664;139.738;2023-04-04T08:18:18;101014.28;;;28.77;14.65
9415;BME280;4746;35.664;139.738;2023-04-04T08:20:46;101012.22;;;28.50;14.75
9415;BME280;4746;35.664;139.738;2023-04-04T08:23:13;101021.53;;;28.24;15.41
9415;BME280;4746;35.664;139.738;2023-04-04T08:25:41;101025.44;;;27.99;15.97
9415;BME280;4746;35.664;139.738;2023-04-04T08:28:10;101025.75;;;27.76;16.36
9415;BME280;4746;35.664;139.738;2023-04-04T08:30:38;101031.44;;;27.50;16.56
9415;BME280;4746;35.664;139.738;2023-04-04T08:33:05;101018.53;;;27.28;16.54
9415;BME280;4746;35.664;139.738;2023-04-04T08:35:33;101029.94;;;27.10;16.84
9415;BME280;4746;35.664;139.738;2023-04-04T08:38:01;101028.00;;;26.95;17.07
9415;BME280;4746;35.664;139.738;2023-04-04T08:40:32;101026.94;;;26.80;17.09
9415;BME280;4746;35.664;139.738;2023-04-04T08:43:00;101026.72;;;26.67;17.53
9415;BME280;4746;35.664;139.738;2023-04-04T08:45:33;101027.31;;;26.53;17.55
9415;BME280;4746;35.664;139.738;2023-04-04T08:48:04;101018.41;;;26.37;17.51
9415;BME280;4746;35.664;139.738;2023-04-04T08:50:36;101017.63;;;26.15;17.74
9415;BME280;4746;35.664;139.738;2023-04-04T08:53:05;101020.47;;;25.91;18.00
9415;BME280;4746;35.664;139.738;2023-04-04T08:55:33;101019.50;;;25.72;18.70
9415;BME280;4746;35.664;139.738;2023-04-04T08:58:01;101024.78;;;25.51;18.85
9415;BME280;4746;35.664;139.738;2023-04-04T09:00:29;101018.69;;;25.29;19.85
9415;BME280;4746;35.664;139.738;2023-04-04T09:03:28;101032.63;;;25.08;19.92
9415;BME280;4746;35.664;139.738;2023-04-04T09:05:59;101033.00;;;24.76;20.58
9415;BME280;4746;35.664;139.738;2023-04-04T09:08:29;101034.69;;;24.54;21.80
9415;BME280;4746;35.664;139.738;2023-04-04T09:11:02;101027.56;;;24.34;22.08
9415;BME280;4746;35.664;139.738;2023-04-04T09:13:30;101033.75;;;24.08;23.01
9415;BME280;4746;35.664;139.738;2023-04-04T09:15:59;101038.09;;;23.83;23.01
9415;BME280;4746;35.664;139.738;2023-04-04T09:18:27;101052.00;;;23.58;23.61
9415;BME280;4746;35.664;139.738;2023-04-04T09:20:55;101054.41;;;23.38;23.71
9415;BME280;4746;35.664;139.738;2023-04-04T09:23:23;101066.19;;;23.24;24.48
9415;BME280;4746;35.664;139.738;2023-04-04T09:25:53;101057.16;;;23.07;24.09
9415;BME280;4746;35.664;139.738;2023-04-04T09:28:22;101064.53;;;22.93;24.62
9415;BME280;4746;35.664;139.738;2023-04-04T09:30:51;101070.03;;;22.84;24.62
9415;BME280;4746;35.664;139.738;2023-04-04T09:33:22;101070.28;;;22.75;25.06
9415;BME280;4746;35.664;139.738;2023-04-04T09:36:09;101073.00;;;22.70;25.00
9415;BME280;4746;35.664;139.738;2023-04-04T09:38:40;101072.53;;;22.58;25.09
9415;BME280;4746;35.664;139.738;2023-04-04T09:41:15;101076.19;;;22.52;25.52
9415;BME280;4746;35.664;139.738;2023-04-04T09:43:45;101079.03;;;22.43;25.65
9415;BME280;4746;35.664;139.738;2023-04-04T09:46:13;101075.81;;;22.34;26.28
9415;BME280;4746;35.664;139.738;2023-04-04T09:48:49;101078.50;;;22.31;26.92
9415;BME280;4746;35.664;139.738;2023-04-04T09:51:17;101079.66;;;22.20;27.64
9415;BME280;4746;35.664;139.738;2023-04-04T09:53:48;101084.25;;;22.10;28.23
9415;BME280;4746;35.664;139.738;2023-04-04T09:56:16;101085.44;;;21.97;28.39
9415;BME280;4746;35.664;139.738;2023-04-04T09:58:48;101101.25;;;21.91;28.86
9415;BME280;4746;35.664;139.738;2023-04-04T10:01:17;101105.09;;;21.78;29.79
9415;BME280;4746;35.664;139.738;2023-04-04T10:03:54;101118.38;;;21.68;30.24
9415;BME280;4746;35.664;139.738;2023-04-04T10:06:22;101136.19;;;21.48;31.00
9415;BME280;4746;35.664;139.738;2023-04-04T10:08:51;101147.03;;;21.32;31.92
9415;BME280;4746;35.664;139.738;2023-04-04T10:11:31;101140.47;;;21.13;32.43
9415;BME280;4746;35.664;139.738;2023-04-04T10:14:01;101137.34;;;20.96;32.92
9415;BME280;4746;35.664;139.738;2023-04-04T10:16:33;101146.22;;;20.88;32.89
9415;BME280;4746;35.664;139.738;2023-04-04T10:19:04;101158.50;;;20.81;33.45
9415;BME280;4746;35.664;139.738;2023-04-04T10:21:34;101149.94;;;20.73;33.56
9415;BME280;4746;35.664;139.738;2023-04-04T10:24:03;101157.00;;;20.67;33.53
9415;BME280;4746;35.664;139.738;2023-04-04T10:26:35;101164.09;;;20.60;34.10
9415;BME280;4746;35.664;139.738;2023-04-04T10:29:03;101179.81;;;20.54;34.25
9415;BME280;4746;35.664;139.738;2023-04-04T10:31:36;101177.28;;;20.50;34.49
9415;BME280;4746;35.664;139.738;2023-04-04T10:37:11;101187.91;;;20.38;35.00
9415;BME280;4746;35.664;139.738;2023-04-04T10:40:04;101188.84;;;20.35;34.48
9415;BME280;4746;35.664;139.738;2023-04-04T10:42:41;101197.63;;;20.28;35.01
9415;BME280;4746;35.664;139.738;2023-04-04T10:45:13;101195.13;;;20.23;35.04
9415;BME280;4746;35.664;139.738;2023-04-04T10:47:42;101182.16;;;20.20;35.03
9415;BME280;4746;35.664;139.738;2023-04-04T10:50:11;101183.13;;;20.16;35.31
9415;BME280;4746;35.664;139.738;2023-04-04T10:52:43;101180.50;;;20.14;35.39
9415;BME280;4746;35.664;139.738;2023-04-04T10:55:13;101177.06;;;20.14;35.47
9415;BME280;4746;35.664;139.738;2023-04-04T10:57:45;101169.31;;;20.09;35.66
9415;BME280;4746;35.664;139.738;2023-04-04T11:00:18;101184.19;;;20.03;35.83
9415;BME280;4746;35.664;139.738;2023-04-04T11:02:55;101200.66;;;20.03;35.92
9415;BME280;4746;35.664;139.738;2023-04-04T11:05:31;101198.09;;;19.99;36.08
9415;BME280;4746;35.664;139.738;2023-04-04T11:08:10;101205.13;;;19.95;36.24
9415;BME280;4746;35.664;139.738;2023-04-04T11:10:44;101210.34;;;19.91;36.33
9415;BME280;4746;35.664;139.738;2023-04-04T11:13:40;101219.00;;;19.91;36.29
9415;BME280;4746;35.664;139.738;2023-04-04T11:16:11;101216.44;;;19.90;36.37
9415;BME280;4746;35.664;139.738;2023-04-04T11:28:58;101234.63;;;19.93;36.98
9415;BME280;4746;35.664;139.738;2023-04-04T11:31:28;101229.41;;;19.93;36.90
9415;BME280;4746;35.664;139.738;2023-04-04T11:39:08;101238.19;;;19.86;37.06
9415;BME280;4746;35.664;139.738;2023-04-04T11:42:11;101239.88;;;19.87;36.63
9415;BME280;4746;35.664;139.738;2023-04-04T11:45:03;101228.69;;;19.83;36.77
9415;BME280;4746;35.664;139.738;2023-04-04T11:47:31;101222.72;;;19.75;37.53
9415;BME280;4746;35.664;139.738;2023-04-04T11:50:08;101226.13;;;19.80;37.44
9415;BME280;4746;35.664;139.738;2023-04-04T11:52:36;101233.09;;;19.77;37.51
9415;BME280;4746;35.664;139.738;2023-04-04T11:55:18;101227.81;;;19.83;37.46
9415;BME280;4746;35.664;139.738;2023-04-04T11:57:49;101229.59;;;19.81;37.58
9415;BME280;4746;35.664;139.738;2023-04-04T12:00:35;101233.84;;;19.86;37.30
9415;BME280;4746;35.664;139.738;2023-04-04T12:03:10;101224.34;;;19.84;37.93
9415;BME280;4746;35.664;139.738;2023-04-04T12:05:43;101230.38;;;19.84;37.77
9415;BME280;4746;35.664;139.738;2023-04-04T12:08:12;101234.75;;;19.84;37.78
9415;BME280;4746;35.664;139.738;2023-04-04T12:10:41;101224.34;;;19.84;37.66
9415;BME280;4746;35.664;139.738;2023-04-04T12:13:10;101219.13;;;19.84;37.76
9415;BME280;4746;35.664;139.738;2023-04-04T12:15:38;101227.00;;;19.79;37.84
9415;BME280;4746;35.664;139.738;2023-04-04T12:18:09;101226.16;;;19.76;38.10
9415;BME280;4746;35.664;139.738;2023-04-04T12:20:39;101224.41;;;19.78;38.27
9415;BME280;4746;35.664;139.738;2023-04-04T12:23:08;101226.19;;;19.74;38.42
9415;BME280;4746;35.664;139.738;2023-04-04T12:25:38;101226.19;;;19.77;38.13
9415;BME280;4746;35.664;139.738;2023-04-04T12:28:10;101234.88;;;19.75;38.54
9415;BME280;4746;35.664;139.738;2023-04-04T12:30:39;101224.47;;;19.75;38.82
9415;BME280;4746;35.664;139.738;2023-04-04T12:33:07;101229.69;;;19.75;38.75
9415;BME280;4746;35.664;139.738;2023-04-04T12:35:34;101227.94;;;19.75;38.69
9415;BME280;4746;35.664;139.738;2023-04-04T12:38:04;101232.22;;;19.78;39.07
9415;BME280;4746;35.664;139.738;2023-04-04T12:40:38;101244.34;;;19.79;39.14
9415;BME280;4746;35.664;139.738;2023-04-04T12:43:07;101240.03;;;19.78;39.12
9415;BME280;4746;35.664;139.738;2023-04-04T12:45:39;101244.34;;;19.79;39.10
9415;BME280;4746;35.664;139.738;2023-04-04T12:48:15;101234.75;;;19.84;38.93
9415;BME280;4746;35.664;139.738;2023-04-04T12:50:50;101238.22;;;19.83;39.19
9415;BME280;4746;35.664;139.738;2023-04-04T12:53:28;101231.25;;;19.85;38.35
9415;BME280;4746;35.664;139.738;2023-04-04T12:56:01;101235.63;;;19.83;39.04
9415;BME280;4746;35.664;139.738;2023-04-04T12:58:31;101231.34;;;19.79;39.02
9415;BME280;4746;35.664;139.738;2023-04-04T13:01:00;101236.53;;;19.79;39.18
9415;BME280;4746;35.664;139.738;2023-04-04T13:03:28;101240.03;;;19.78;39.09
9415;BME280;4746;35.664;139.738;2023-04-04T13:05:58;101246.06;;;19.78;39.42
9415;BME280;4746;35.664;139.738;2023-04-04T13:08:26;101236.56;;;19.76;39.36
9415;BME280;4746;35.664;139.738;2023-04-04T13:11:04;101237.41;;;19.81;39.32
9415;BME280;4746;35.664;139.738;2023-04-04T13:13:38;101240.00;;;19.79;39.29
9415;BME280;4746;35.664;139.738;2023-04-04T13:16:09;101236.56;;;19.77;39.53
9415;BME280;4746;35.664;139.738;2023-04-04T13:18:42;101244.38;;;19.77;39.48
9415;BME280;4746;35.664;139.738;2023-04-04T13:21:12;101240.06;;;19.76;39.36
9415;BME280;4746;35.664;139.738;2023-04-04T13:23:41;101232.28;;;19.75;39.84